This is the latest recevied weather packets stored in our database for station/object KE5QKR. If no packets are shown the sender has not sent any weather packets the latest 10 day(s).
| Time | Temp. | Humidity | Pressure | Rain* | Wind** | Luminosity | Snow |
|---|---|---|---|---|---|---|---|
| 1777305416 | 28.33° C | 76% | 1014.3 hPa | 0 mm | - | 715 W/m² | - |
| 1777305111 | 28.89° C | 77% | 1014.1 hPa | 0 mm | - | 697 W/m² | - |
| 1777304806 | 28.89° C | 77% | 1013.7 hPa | 0 mm | - | 685 W/m² | - |
| 1777304503 | 28.33° C | 75% | 1014.1 hPa | 0 mm | - | 675 W/m² | - |
| 1777304201 | 27.78° C | 78% | 1014 hPa | 1.78 mm | - | 666 W/m² | - |
| 1777303898 | 27.78° C | 79% | 1013.9 hPa | 1.78 mm | - | 337 W/m² | - |
| 1777303594 | 27.78° C | 79% | 1014.1 hPa | 0 mm | - | 221 W/m² | - |
| 1777303292 | 27.78° C | 77% | 1014.2 hPa | 0 mm | - | 616 W/m² | - |
| 1777302990 | 27.78° C | 76% | 1014.1 hPa | 0 mm | - | 602 W/m² | - |
| 1777302686 | 27.78° C | 77% | 1013.7 hPa | 0 mm | - | 590 W/m² | - |
| 1777302384 | 28.33° C | 77% | 1013.6 hPa | 0 mm | - | 601 W/m² | - |
| 1777302082 | 27.78° C | 80% | 1013.6 hPa | 0 mm | - | 582 W/m² | - |
| 1777301780 | 27.78° C | 79% | 1013.6 hPa | 0 mm | - | 560 W/m² | - |
| 1777301477 | 27.22° C | 81% | 1013.6 hPa | 0 mm | - | 547 W/m² | - |
| 1777301174 | 27.22° C | 81% | 1013.4 hPa | 0 mm | - | 524 W/m² | - |
| 1777300871 | 27.22° C | 81% | 1013.7 hPa | 0 mm | - | 280 W/m² | - |
| 1777300569 | 27.22° C | 81% | 1013.8 hPa | 0 mm | - | 496 W/m² | - |
| 1777300266 | 27.78° C | 82% | 1013.9 hPa | 0 mm | - | 287 W/m² | - |
| 1777299962 | 26.67° C | 84% | 1013.4 hPa | 0 mm | - | 475 W/m² | - |
| 1777299659 | 26.67° C | 85% | 1013.2 hPa | 0 mm | - | 414 W/m² | - |
| 1777299357 | 25.56° C | 87% | 1013.2 hPa | 0 mm | - | 432 W/m² | - |
| 1777299055 | 25.56° C | 89% | 1012.9 hPa | 0 mm | - | 165 W/m² | - |
| 1777298751 | 24.44° C | 93% | 1013.1 hPa | 0 mm | - | 228 W/m² | - |
| 1777298448 | 24.44° C | 94% | 1013.3 hPa | 0 mm | - | 160 W/m² | - |
| 1777298145 | 23.89° C | 96% | 1013.2 hPa | 0 mm | - | 346 W/m² | - |
* Rain latest hour (hover to see other rain measurements)
** Current wind speed in m/s (hover to see current wind gust speed)